createdAt,value
2022-12-28T00:01:54.724Z,36.65
2022-12-28T00:04:22.866Z,36.67
2022-12-28T00:06:52.572Z,36.62
2022-12-28T00:09:22.072Z,36.65
2022-12-28T00:11:50.211Z,36.67
2022-12-28T00:14:18.331Z,36.71
2022-12-28T00:16:46.567Z,36.71
2022-12-28T00:19:17.290Z,36.72
2022-12-28T00:21:46.925Z,36.69
2022-12-28T00:24:20.076Z,36.80
2022-12-28T00:26:49.669Z,36.64
2022-12-28T00:29:17.945Z,36.74
2022-12-28T00:31:49.000Z,36.69
2022-12-28T00:34:17.087Z,36.60
2022-12-28T00:37:09.162Z,36.69
2022-12-28T00:39:33.222Z,36.57
2022-12-28T00:42:02.709Z,36.66
2022-12-28T00:44:30.771Z,36.61
2022-12-28T00:46:58.845Z,36.70
2022-12-28T00:49:26.924Z,36.56
2022-12-28T00:51:54.973Z,36.63
2022-12-28T00:54:23.048Z,36.65
2022-12-28T00:56:51.077Z,36.64
2022-12-28T00:59:20.528Z,36.70
2022-12-28T01:01:48.634Z,36.63
2022-12-28T01:04:16.730Z,36.59
2022-12-28T01:06:44.790Z,36.73
2022-12-28T01:09:12.835Z,36.63
2022-12-28T01:11:40.960Z,36.59
2022-12-28T01:14:09.093Z,36.52
2022-12-28T01:16:38.753Z,36.61
2022-12-28T01:19:08.344Z,36.66
2022-12-28T01:21:37.662Z,36.59
2022-12-28T01:24:08.040Z,36.69
2022-12-28T01:26:36.673Z,36.72
2022-12-28T01:29:05.314Z,36.53
2022-12-28T01:31:34.543Z,36.50
2022-12-28T01:34:04.468Z,36.56
2022-12-28T01:36:35.062Z,36.59
2022-12-28T01:39:05.796Z,36.83
2022-12-28T01:41:37.584Z,36.60
2022-12-28T01:44:40.937Z,36.39
2022-12-28T01:47:13.515Z,36.55
2022-12-28T01:49:47.588Z,36.57
2022-12-28T01:52:20.866Z,36.63
2022-12-28T01:54:53.801Z,36.62
2022-12-28T01:57:26.022Z,36.60
2022-12-28T01:59:58.623Z,36.50
2022-12-28T02:02:27.633Z,36.54
2022-12-28T02:04:59.838Z,36.61
2022-12-28T02:07:38.622Z,36.51
2022-12-28T02:10:40.600Z,36.62
2022-12-28T02:12:58.229Z,36.53
2022-12-28T02:15:26.387Z,36.60
2022-12-28T02:17:54.780Z,36.50
2022-12-28T02:20:31.274Z,36.66
2022-12-28T02:23:29.955Z,36.47
2022-12-28T02:26:43.844Z,36.37
2022-12-28T02:29:46.878Z,36.54
2022-12-28T02:32:55.794Z,36.40
2022-12-28T02:35:35.120Z,36.41
2022-12-28T02:38:10.267Z,36.54
2022-12-28T02:40:42.975Z,36.48
2022-12-28T02:43:11.492Z,36.48
2022-12-28T02:46:00.575Z,36.65
2022-12-28T02:48:46.455Z,36.50
2022-12-28T02:51:32.700Z,36.42
2022-12-28T02:54:47.807Z,36.49
2022-12-28T02:57:28.308Z,36.53
2022-12-28T03:00:04.654Z,36.38
2022-12-28T03:02:50.841Z,36.44
2022-12-28T03:05:45.028Z,36.39
2022-12-28T03:08:23.094Z,36.54
2022-12-28T03:10:57.211Z,36.37
2022-12-28T03:13:46.495Z,36.45
2022-12-28T03:16:19.621Z,36.38
2022-12-28T03:19:11.834Z,36.58
2022-12-28T03:22:00.878Z,36.51
2022-12-28T03:24:49.225Z,36.52
2022-12-28T03:27:37.119Z,36.47
2022-12-28T03:30:25.619Z,36.52
2022-12-28T03:32:54.281Z,36.45
2022-12-28T03:35:28.820Z,36.49
2022-12-28T03:38:01.682Z,36.42
2022-12-28T03:40:36.610Z,36.58
2022-12-28T03:43:28.673Z,36.45
2022-12-28T03:46:04.899Z,36.45
2022-12-28T03:48:34.558Z,36.37
2022-12-28T03:51:04.688Z,36.48
2022-12-28T03:53:39.816Z,36.38
2022-12-28T03:56:12.472Z,36.49
2022-12-28T03:58:40.560Z,36.41
2022-12-28T04:01:08.883Z,36.46
2022-12-28T04:03:37.229Z,36.38
2022-12-28T04:06:07.527Z,36.40
2022-12-28T04:08:36.412Z,36.53
2022-12-28T04:11:04.502Z,36.53
2022-12-28T04:13:33.347Z,36.48
2022-12-28T04:16:02.944Z,36.40
2022-12-28T04:18:32.705Z,36.44
2022-12-28T04:21:01.095Z,36.40
2022-12-28T04:23:31.853Z,36.48
2022-12-28T04:26:05.685Z,36.35
2022-12-28T04:28:34.459Z,36.36
2022-12-28T04:31:04.174Z,36.42
2022-12-28T04:33:34.500Z,36.43
2022-12-28T04:36:06.865Z,36.39
2022-12-28T04:38:36.986Z,36.46
2022-12-28T04:41:06.900Z,36.29
2022-12-28T04:43:35.543Z,36.28
2022-12-28T04:46:06.728Z,36.31
2022-12-28T04:48:36.015Z,36.38
2022-12-28T04:51:08.427Z,36.37
2022-12-28T04:53:39.753Z,36.22
2022-12-28T04:56:09.351Z,36.31
2022-12-28T04:58:38.077Z,36.33
2022-12-28T05:01:07.235Z,36.29
2022-12-28T05:03:35.914Z,36.26
2022-12-28T05:06:04.955Z,36.29
2022-12-28T05:08:33.590Z,36.21
2022-12-28T05:11:05.175Z,36.22
2022-12-28T05:13:33.612Z,36.08
2022-12-28T05:16:02.993Z,36.26
2022-12-28T05:18:31.324Z,36.28
2022-12-28T05:21:03.284Z,36.43
2022-12-28T05:23:31.890Z,36.32
2022-12-28T05:26:00.504Z,36.32
2022-12-28T05:28:30.008Z,36.15
2022-12-28T05:31:01.051Z,36.07
2022-12-28T05:33:30.474Z,36.27
2022-12-28T05:35:58.940Z,36.32
2022-12-28T05:38:27.084Z,36.26
2022-12-28T05:40:55.196Z,36.22
2022-12-28T05:43:23.254Z,36.25
2022-12-28T05:45:52.754Z,36.16
2022-12-28T05:48:20.825Z,35.89
2022-12-28T05:50:49.007Z,36.20
2022-12-28T05:53:17.088Z,36.22
2022-12-28T05:55:45.195Z,36.12
2022-12-28T05:58:13.341Z,36.18
2022-12-28T06:00:41.457Z,36.16
2022-12-28T06:03:11.035Z,36.26
2022-12-28T06:05:39.342Z,36.13
2022-12-28T06:08:07.575Z,36.12
2022-12-28T06:10:35.664Z,36.00
2022-12-28T06:13:03.755Z,36.30
2022-12-28T06:15:31.964Z,36.24
2022-12-28T06:18:00.052Z,36.22
2022-12-28T06:20:29.564Z,36.15
2022-12-28T06:22:57.650Z,36.14
2022-12-28T06:25:25.727Z,36.09
2022-12-28T06:27:54.472Z,36.26
2022-12-28T06:30:22.541Z,36.15
2022-12-28T06:32:50.682Z,36.15
2022-12-28T06:35:19.294Z,36.24
2022-12-28T06:37:50.328Z,36.22
2022-12-28T06:40:18.416Z,36.24
2022-12-28T06:42:46.479Z,36.23
2022-12-28T06:45:14.572Z,36.08
2022-12-28T06:47:42.658Z,36.14
2022-12-28T06:50:11.093Z,36.11
2022-12-28T06:52:39.205Z,36.18
2022-12-28T06:55:09.544Z,36.01
2022-12-28T06:57:37.621Z,36.25
2022-12-28T07:00:07.054Z,36.17
2022-12-28T07:02:35.286Z,36.09
2022-12-28T07:05:03.443Z,36.07
2022-12-28T07:07:31.580Z,36.14
2022-12-28T07:09:59.659Z,36.12
2022-12-28T07:12:29.157Z,36.20
2022-12-28T07:14:58.452Z,36.18
2022-12-28T07:17:26.537Z,36.02
2022-12-28T07:19:55.693Z,36.17
2022-12-28T07:22:23.757Z,36.05
2022-12-28T07:24:51.779Z,36.20
2022-12-28T07:27:19.835Z,36.06
2022-12-28T07:29:49.253Z,36.02
2022-12-28T07:32:17.300Z,36.07
2022-12-28T07:34:45.348Z,36.03
2022-12-28T07:37:13.414Z,35.90
2022-12-28T07:39:41.441Z,35.99
2022-12-28T07:42:12.292Z,36.10
2022-12-28T07:44:48.668Z,35.96
2022-12-28T07:47:18.437Z,36.02
2022-12-28T07:49:46.499Z,36.01
2022-12-28T07:52:14.549Z,36.08
2022-12-28T07:54:42.597Z,36.06
2022-12-28T07:57:10.754Z,36.01
2022-12-28T07:59:38.837Z,36.11
2022-12-28T08:02:07.091Z,35.97
2022-12-28T08:04:36.722Z,36.00
2022-12-28T08:07:04.801Z,35.96
2022-12-28T08:09:32.872Z,36.07
2022-12-28T08:12:00.914Z,36.06
2022-12-28T08:14:28.957Z,36.01
2022-12-28T08:16:57.224Z,36.06
2022-12-28T08:19:25.333Z,36.00
2022-12-28T08:21:54.771Z,36.08
2022-12-28T08:24:23.113Z,35.99
2022-12-28T08:26:51.175Z,35.90
2022-12-28T08:29:21.753Z,36.06
2022-12-28T08:31:51.310Z,36.03
2022-12-28T08:34:23.173Z,36.25
2022-12-28T08:36:51.311Z,36.03
2022-12-28T08:39:20.820Z,35.94
2022-12-28T08:41:50.136Z,35.92
2022-12-28T08:44:18.247Z,36.05
2022-12-28T08:46:46.444Z,36.05
2022-12-28T08:49:15.926Z,36.03
2022-12-28T08:51:44.322Z,35.87
2022-12-28T08:54:14.884Z,36.02
2022-12-28T08:56:46.084Z,36.03
2022-12-28T08:59:17.056Z,36.02
2022-12-28T09:01:46.158Z,36.01
2022-12-28T09:04:16.386Z,35.88
2022-12-28T09:06:45.556Z,35.92
2022-12-28T09:09:15.818Z,36.11
2022-12-28T09:11:48.933Z,36.05
2022-12-28T09:14:23.857Z,35.99
2022-12-28T09:16:53.385Z,36.08
2022-12-28T09:19:22.260Z,35.97
2022-12-28T09:21:52.822Z,35.87
2022-12-28T09:24:21.315Z,35.76
2022-12-28T09:26:53.240Z,35.92
2022-12-28T09:29:21.514Z,35.94
2022-12-28T09:31:49.631Z,36.05
2022-12-28T09:37:06.463Z,35.96
2022-12-28T09:39:34.688Z,36.02
2022-12-28T09:42:07.669Z,35.90
2022-12-28T09:44:46.525Z,35.91
2022-12-28T09:47:24.411Z,35.95
2022-12-28T09:50:06.633Z,35.88
2022-12-28T09:52:37.838Z,35.88
2022-12-28T09:55:12.608Z,36.06
2022-12-28T09:57:47.176Z,36.04
2022-12-28T10:00:21.198Z,35.91
2022-12-28T10:02:52.221Z,35.99
2022-12-28T10:05:22.372Z,36.03
2022-12-28T10:07:52.503Z,35.70
2022-12-28T10:10:23.386Z,35.95
2022-12-28T10:12:55.983Z,36.03
2022-12-28T10:15:27.792Z,36.06
2022-12-28T10:17:56.568Z,35.96
2022-12-28T10:20:24.799Z,35.93
2022-12-28T10:22:57.992Z,35.92
2022-12-28T10:25:27.841Z,35.96
2022-12-28T10:27:57.877Z,35.99
2022-12-28T10:30:28.255Z,36.00
2022-12-28T10:33:02.577Z,35.99
2022-12-28T10:35:43.469Z,35.76
2022-12-28T10:38:23.021Z,35.94
2022-12-28T10:40:59.629Z,35.94
2022-12-28T10:43:32.317Z,35.96
2022-12-28T10:46:01.564Z,36.02
2022-12-28T10:48:34.367Z,35.94
2022-12-28T10:51:12.505Z,35.95
2022-12-28T10:53:44.409Z,35.97
2022-12-28T10:56:23.430Z,35.84
2022-12-28T10:58:54.118Z,35.91
2022-12-28T11:01:27.804Z,35.85
2022-12-28T11:04:03.004Z,35.74
2022-12-28T11:06:32.302Z,35.99
2022-12-28T11:09:08.089Z,35.83
2022-12-28T11:11:36.147Z,35.93
2022-12-28T11:14:14.241Z,35.87
2022-12-28T11:16:43.256Z,36.03
2022-12-28T11:19:12.776Z,35.94
2022-12-28T11:21:43.149Z,35.91
2022-12-28T11:24:17.809Z,36.03
2022-12-28T11:26:48.773Z,35.94
2022-12-28T11:29:20.667Z,35.85
2022-12-28T11:31:54.581Z,36.00
2022-12-28T11:34:27.228Z,35.87
2022-12-28T11:36:55.544Z,36.05
2022-12-28T11:39:44.020Z,35.90
2022-12-28T11:42:38.325Z,35.85
2022-12-28T11:45:04.092Z,35.93
2022-12-28T11:47:34.197Z,35.95
2022-12-28T11:50:39.466Z,35.74
2022-12-28T11:53:23.503Z,35.82
2022-12-28T11:56:01.668Z,35.91
2022-12-28T11:58:45.640Z,35.84
2022-12-28T12:01:51.032Z,35.86
2022-12-28T12:04:37.854Z,35.75
2022-12-28T12:07:32.072Z,35.85
2022-12-28T12:10:35.760Z,35.84
2022-12-28T12:13:20.675Z,35.85
2022-12-28T12:15:50.618Z,35.86
2022-12-28T12:18:25.109Z,35.91
2022-12-28T12:21:00.788Z,35.92
2022-12-28T12:23:42.156Z,35.68
2022-12-28T12:26:27.712Z,35.93
2022-12-28T12:29:00.360Z,35.93
2022-12-28T12:31:31.949Z,35.95
2022-12-28T12:34:08.154Z,35.90
2022-12-28T12:37:18.105Z,35.80
2022-12-28T12:40:11.465Z,35.84
2022-12-28T12:42:51.341Z,36.04
2022-12-28T12:45:28.540Z,35.95
2022-12-28T12:48:19.093Z,35.87
2022-12-28T12:51:22.815Z,35.83
2022-12-28T12:54:07.633Z,35.69
2022-12-28T12:56:47.176Z,35.89
2022-12-28T12:59:47.932Z,35.78
2022-12-28T13:02:33.556Z,35.93
2022-12-28T13:05:04.695Z,35.94
2022-12-28T13:07:35.140Z,36.06
2022-12-28T13:10:05.805Z,36.07
2022-12-28T13:12:33.920Z,35.89
2022-12-28T13:15:09.078Z,36.04
2022-12-28T13:17:40.716Z,35.99
2022-12-28T13:20:11.161Z,35.93
2022-12-28T13:22:47.923Z,36.19
2022-12-28T13:25:26.784Z,35.95
2022-12-28T13:27:55.481Z,35.93
2022-12-28T13:30:25.680Z,36.02
2022-12-28T13:32:57.155Z,35.92
2022-12-28T13:35:28.565Z,35.95
2022-12-28T13:38:13.460Z,35.91
2022-12-28T13:40:42.974Z,36.00
2022-12-28T13:43:39.673Z,36.03
2022-12-28T13:46:13.166Z,36.01
2022-12-28T13:48:46.903Z,36.18
2022-12-28T13:51:17.755Z,36.00
2022-12-28T13:53:51.158Z,36.09
2022-12-28T13:56:22.075Z,35.95
2022-12-28T13:58:54.770Z,35.94
2022-12-28T14:01:26.153Z,36.15
2022-12-28T14:04:08.795Z,36.09
2022-12-28T14:06:48.685Z,36.05
2022-12-28T14:09:20.564Z,36.10
2022-12-28T14:11:51.649Z,35.97
2022-12-28T14:14:20.145Z,36.16
2022-12-28T14:16:48.530Z,36.13
2022-12-28T14:19:17.031Z,36.01
2022-12-28T14:21:48.257Z,36.06
2022-12-28T14:24:18.053Z,36.05
2022-12-28T14:26:49.781Z,36.07
2022-12-28T14:29:23.997Z,36.22
2022-12-28T14:31:56.515Z,36.12
2022-12-28T14:34:26.268Z,36.01
2022-12-28T14:36:56.339Z,36.11
2022-12-28T14:39:31.098Z,36.18
2022-12-28T14:42:00.640Z,36.17
2022-12-28T14:44:33.785Z,36.24
2022-12-28T14:47:02.192Z,36.14
2022-12-28T14:49:36.404Z,36.24
2022-12-28T14:52:42.822Z,36.31
2022-12-28T14:55:33.490Z,36.21
2022-12-28T14:58:06.040Z,36.32
2022-12-28T15:00:39.538Z,36.18
2022-12-28T15:03:18.752Z,36.24
2022-12-28T15:05:47.927Z,36.27
2022-12-28T15:08:16.050Z,36.07
2022-12-28T15:10:51.339Z,36.45
2022-12-28T15:13:20.571Z,36.12
2022-12-28T15:15:55.021Z,36.35
2022-12-28T15:18:23.494Z,36.30
2022-12-28T15:20:51.797Z,36.25
2022-12-28T15:23:20.890Z,36.27
2022-12-28T15:25:51.362Z,36.29
2022-12-28T15:28:19.408Z,36.29
2022-12-28T15:30:47.523Z,36.37
2022-12-28T15:33:16.559Z,36.36
2022-12-28T15:35:44.645Z,36.39
2022-12-28T15:38:16.517Z,36.42
2022-12-28T15:40:44.554Z,36.40
2022-12-28T15:43:14.002Z,36.37
2022-12-28T15:45:42.073Z,36.34
2022-12-28T15:48:10.131Z,36.45
2022-12-28T15:50:38.200Z,36.40
2022-12-28T15:53:06.235Z,36.50
2022-12-28T15:55:34.547Z,36.27
2022-12-28T15:58:02.568Z,36.34
2022-12-28T16:00:32.121Z,36.48
2022-12-28T16:03:00.321Z,36.40
2022-12-28T16:05:28.499Z,36.35
2022-12-28T16:07:56.539Z,36.43
2022-12-28T16:10:24.596Z,36.40
2022-12-28T16:12:52.737Z,36.36
2022-12-28T16:15:20.789Z,36.38
2022-12-28T16:17:57.114Z,36.55
2022-12-28T16:20:25.643Z,36.46
2022-12-28T16:22:54.441Z,36.43
2022-12-28T16:25:22.481Z,36.47
2022-12-28T16:27:50.791Z,36.45
2022-12-28T16:30:18.952Z,36.44
2022-12-28T16:32:49.503Z,36.51
2022-12-28T16:35:17.706Z,36.50
2022-12-28T16:37:46.031Z,36.51
2022-12-28T16:40:14.083Z,36.47
2022-12-28T16:42:46.014Z,36.53
2022-12-28T16:45:14.333Z,36.56
2022-12-28T16:47:44.900Z,36.52
2022-12-28T16:50:14.824Z,36.49
2022-12-28T16:52:42.868Z,36.55
2022-12-28T16:55:11.053Z,36.57
2022-12-28T16:57:39.159Z,36.50
2022-12-28T17:00:08.732Z,36.56
2022-12-28T17:02:36.923Z,36.55
2022-12-28T17:05:05.535Z,36.57
2022-12-28T17:07:34.971Z,36.65
2022-12-28T17:10:03.073Z,36.47
2022-12-28T17:12:31.190Z,36.60
2022-12-28T17:15:04.601Z,36.52
2022-12-28T17:17:33.299Z,36.54
2022-12-28T17:20:01.655Z,36.66
2022-12-28T17:22:31.034Z,36.60
2022-12-28T17:25:00.572Z,36.52
2022-12-28T17:27:28.853Z,36.65
2022-12-28T17:29:57.087Z,36.63
2022-12-28T17:32:25.129Z,36.55
2022-12-28T17:34:53.285Z,36.59
2022-12-28T17:37:21.358Z,36.64
2022-12-28T17:39:49.409Z,36.66
2022-12-28T17:42:18.883Z,36.60
2022-12-28T17:44:48.690Z,36.68
2022-12-28T17:47:16.827Z,36.63
2022-12-28T17:49:44.886Z,36.67
2022-12-28T17:52:17.407Z,36.63
2022-12-28T17:54:45.416Z,36.71
2022-12-28T17:57:13.506Z,36.72
2022-12-28T17:59:42.926Z,36.78
2022-12-28T18:02:12.945Z,36.62
2022-12-28T18:04:42.207Z,36.79
2022-12-28T18:07:10.247Z,36.79
2022-12-28T18:09:38.311Z,36.58
2022-12-28T18:12:06.617Z,36.66
2022-12-28T18:14:34.667Z,36.72
2022-12-28T18:17:04.173Z,36.88
2022-12-28T18:19:32.480Z,36.87
2022-12-28T18:22:00.538Z,36.82
2022-12-28T18:24:28.960Z,36.70
2022-12-28T18:26:57.016Z,36.93
2022-12-28T18:29:25.064Z,36.65
2022-12-28T18:31:53.130Z,36.71
2022-12-28T18:34:22.599Z,36.69
2022-12-28T18:36:50.619Z,36.82
2022-12-28T18:39:18.707Z,36.67
2022-12-28T18:41:46.746Z,36.79
2022-12-28T18:44:14.909Z,36.73
2022-12-28T18:46:42.944Z,36.67
2022-12-28T18:49:11.021Z,36.72
2022-12-28T18:51:40.464Z,36.74
2022-12-28T18:54:08.507Z,36.75
2022-12-28T18:56:36.513Z,36.74
2022-12-28T18:59:04.619Z,36.87
2022-12-28T19:02:05.049Z,36.83
2022-12-28T19:04:21.094Z,36.74
2022-12-28T19:06:50.953Z,36.80
2022-12-28T19:09:19.281Z,36.74
2022-12-28T19:11:47.518Z,36.95
2022-12-28T19:14:17.204Z,36.87
2022-12-28T19:16:45.441Z,36.83
2022-12-28T19:19:13.769Z,36.75
2022-12-28T19:21:42.937Z,36.84
2022-12-28T19:24:15.407Z,36.79
2022-12-28T19:26:44.164Z,36.95
2022-12-28T19:29:13.002Z,36.83
2022-12-28T19:31:41.339Z,36.76
2022-12-28T19:34:09.491Z,36.82
2022-12-28T19:36:37.537Z,36.84
2022-12-28T19:39:05.815Z,36.93
2022-12-28T19:41:35.731Z,36.98
2022-12-28T19:44:04.082Z,36.90
2022-12-28T19:46:32.606Z,36.83
2022-12-28T19:49:01.924Z,36.88
2022-12-28T19:51:32.382Z,36.92
2022-12-28T19:54:01.030Z,36.95
2022-12-28T19:56:29.561Z,36.87
2022-12-28T19:59:05.599Z,36.87
2022-12-28T20:01:36.567Z,36.88
2022-12-28T20:04:12.277Z,36.87
2022-12-28T20:06:43.163Z,36.88
2022-12-28T20:09:12.779Z,37.04
2022-12-28T20:11:41.071Z,36.90
2022-12-28T20:14:13.996Z,36.95
2022-12-28T20:16:42.902Z,36.74
2022-12-28T20:19:12.401Z,37.04
2022-12-28T20:21:42.044Z,37.00
2022-12-28T20:24:13.019Z,37.06
2022-12-28T20:26:41.161Z,36.87
2022-12-28T20:29:10.681Z,36.99
2022-12-28T20:31:38.801Z,36.96
2022-12-28T20:34:06.953Z,37.00
2022-12-28T20:36:35.489Z,36.92
2022-12-28T20:39:04.457Z,37.00
2022-12-28T20:41:51.055Z,37.00
2022-12-28T20:44:23.948Z,36.91
2022-12-28T20:46:52.050Z,37.00
2022-12-28T20:49:20.336Z,37.11
2022-12-28T20:51:49.443Z,36.97
2022-12-28T20:54:17.714Z,37.12
2022-12-28T20:56:50.576Z,37.05
2022-12-28T20:59:25.059Z,37.06
2022-12-28T21:01:54.389Z,37.05
2022-12-28T21:04:26.147Z,37.05
2022-12-28T21:06:54.596Z,37.11
2022-12-28T21:09:23.232Z,37.09
2022-12-28T21:11:51.326Z,37.04
2022-12-28T21:14:19.724Z,37.01
2022-12-28T21:16:49.391Z,37.11
2022-12-28T21:19:17.787Z,37.05
2022-12-28T21:21:47.489Z,37.09
2022-12-28T21:24:15.885Z,37.06
2022-12-28T21:26:43.946Z,37.08
2022-12-28T21:29:12.047Z,37.12
2022-12-28T21:31:40.326Z,37.11
2022-12-28T21:34:09.886Z,37.30
2022-12-28T21:36:38.003Z,37.09
2022-12-28T21:39:06.088Z,37.15
2022-12-28T21:41:52.949Z,37.21
2022-12-28T21:44:23.017Z,36.99
2022-12-28T21:46:52.301Z,37.21
2022-12-28T21:49:22.294Z,37.46
2022-12-28T21:51:51.573Z,37.17
2022-12-28T21:54:21.598Z,37.17
2022-12-28T21:56:52.551Z,37.20
2022-12-28T21:59:21.521Z,37.15
2022-12-28T22:02:07.123Z,37.25
2022-12-28T22:05:00.162Z,37.22
2022-12-28T22:07:30.652Z,37.20
2022-12-28T22:10:16.069Z,37.13
2022-12-28T22:12:44.182Z,37.31
2022-12-28T22:15:32.356Z,37.20
2022-12-28T22:18:03.647Z,37.29
2022-12-28T22:20:34.356Z,37.23
2022-12-28T22:23:03.411Z,37.16
2022-12-28T22:25:32.185Z,37.30
2022-12-28T22:28:00.657Z,37.36
2022-12-28T22:30:29.620Z,37.27
2022-12-28T22:32:57.810Z,37.21
2022-12-28T22:35:25.937Z,37.25
2022-12-28T22:37:55.522Z,37.26
2022-12-28T22:40:24.274Z,37.21
2022-12-28T22:42:52.452Z,37.26
2022-12-28T22:45:22.476Z,37.26
2022-12-28T22:47:54.219Z,37.28
2022-12-28T22:50:22.740Z,37.43
2022-12-28T22:52:50.853Z,37.25
2022-12-28T22:55:20.412Z,37.37
2022-12-28T22:57:48.481Z,37.37
2022-12-28T23:00:16.831Z,37.26
2022-12-28T23:02:45.130Z,37.38
2022-12-28T23:05:15.625Z,37.37
2022-12-28T23:07:43.736Z,37.42
2022-12-28T23:10:11.876Z,37.10
2022-12-28T23:12:41.379Z,37.35
2022-12-28T23:15:18.720Z,37.41
2022-12-28T23:17:48.163Z,37.41
2022-12-28T23:20:34.114Z,37.38
2022-12-28T23:23:19.610Z,37.36
2022-12-28T23:26:05.124Z,37.47
2022-12-28T23:28:35.986Z,37.37
2022-12-28T23:31:04.752Z,37.43
2022-12-28T23:33:32.962Z,37.43
2022-12-28T23:36:03.588Z,37.36
2022-12-28T23:38:32.587Z,37.45
2022-12-28T23:41:14.579Z,37.34
2022-12-28T23:43:44.056Z,37.40
2022-12-28T23:46:12.247Z,37.38
2022-12-28T23:48:40.356Z,37.52
2022-12-28T23:51:09.115Z,37.45
2022-12-28T23:53:37.482Z,37.59
2022-12-28T23:56:05.898Z,37.44
2022-12-28T23:58:34.001Z,37.42
